createdAt,value
2023-08-19T00:01:13.563Z,9.45
2023-08-19T00:03:40.265Z,9.43
2023-08-19T00:06:09.892Z,9.00
2023-08-19T00:08:37.190Z,9.05
2023-08-19T00:11:04.924Z,9.10
2023-08-19T00:13:31.784Z,9.70
2023-08-19T00:15:58.680Z,9.23
2023-08-19T00:18:25.572Z,8.70
2023-08-19T00:20:52.619Z,8.65
2023-08-19T00:23:19.372Z,9.27
2023-08-19T00:25:45.998Z,9.32
2023-08-19T00:28:12.684Z,9.88
2023-08-19T00:30:39.338Z,8.90
2023-08-19T00:33:05.979Z,10.00
2023-08-19T00:35:33.781Z,9.05
2023-08-19T00:38:00.914Z,8.88
2023-08-19T00:40:27.600Z,9.18
2023-08-19T00:42:54.317Z,9.02
2023-08-19T00:45:20.972Z,9.05
2023-08-19T00:47:47.814Z,9.20
2023-08-19T00:50:15.921Z,9.60
2023-08-19T00:52:44.529Z,9.40
2023-08-19T00:55:11.390Z,8.27
2023-08-19T00:57:38.434Z,9.13
2023-08-19T01:00:06.355Z,8.63
2023-08-19T01:02:33.138Z,8.52
2023-08-19T01:04:59.987Z,8.40
2023-08-19T01:07:39.608Z,8.70
2023-08-19T01:10:28.182Z,8.70
2023-08-19T01:13:21.440Z,8.75
2023-08-19T01:15:56.798Z,8.90
2023-08-19T01:18:24.937Z,9.02
2023-08-19T01:20:54.268Z,9.10
2023-08-19T01:23:31.619Z,10.15
2023-08-19T01:25:58.719Z,9.10
2023-08-19T01:28:25.442Z,9.25
2023-08-19T01:30:52.193Z,10.82
2023-08-19T01:33:19.689Z,9.75
2023-08-19T01:36:14.988Z,9.45
2023-08-19T01:38:52.230Z,9.60
2023-08-19T01:41:23.660Z,8.75
2023-08-19T01:43:51.007Z,9.30
2023-08-19T01:46:18.847Z,9.07
2023-08-19T01:48:45.614Z,8.82
2023-08-19T01:51:12.318Z,8.85
2023-08-19T01:53:38.930Z,9.95
2023-08-19T01:56:05.878Z,9.55
2023-08-19T01:58:32.593Z,9.52
2023-08-19T02:00:59.414Z,9.65
2023-08-19T02:03:26.074Z,9.07
2023-08-19T02:05:52.899Z,9.45
2023-08-19T02:08:19.608Z,9.40
2023-08-19T02:10:46.320Z,9.23
2023-08-19T02:13:12.957Z,9.40
2023-08-19T02:15:39.816Z,9.23
2023-08-19T02:18:06.722Z,9.23
2023-08-19T02:20:33.904Z,9.82
2023-08-19T02:23:00.823Z,9.50
2023-08-19T02:25:27.787Z,9.07
2023-08-19T02:27:54.601Z,11.02
2023-08-19T02:30:21.365Z,8.77
2023-08-19T02:32:48.054Z,8.80
2023-08-19T02:35:15.137Z,9.63
2023-08-19T02:37:41.748Z,8.93
2023-08-19T02:40:08.920Z,8.93
2023-08-19T02:42:35.618Z,9.70
2023-08-19T02:45:02.352Z,8.55
2023-08-19T02:47:29.064Z,9.43
2023-08-19T02:49:55.984Z,8.75
2023-08-19T02:52:22.671Z,9.43
2023-08-19T02:54:49.384Z,9.02
2023-08-19T02:57:16.029Z,8.38
2023-08-19T02:59:42.690Z,8.88
2023-08-19T03:02:09.391Z,9.82
2023-08-19T03:04:36.017Z,8.93
2023-08-19T03:07:02.692Z,8.98
2023-08-19T03:09:29.411Z,8.85
2023-08-19T03:11:56.062Z,9.35
2023-08-19T03:14:22.782Z,9.30
2023-08-19T03:16:51.276Z,8.98
2023-08-19T03:19:18.049Z,8.82
2023-08-19T03:21:44.786Z,9.35
2023-08-19T03:24:11.479Z,10.27
2023-08-19T03:26:38.126Z,8.63
2023-08-19T03:29:04.874Z,8.73
2023-08-19T03:31:31.629Z,8.90
2023-08-19T03:33:58.245Z,8.43
2023-08-19T03:36:24.918Z,8.35
2023-08-19T03:38:51.592Z,8.90
2023-08-19T03:41:18.258Z,8.57
2023-08-19T03:43:44.842Z,8.98
2023-08-19T03:46:11.588Z,8.13
2023-08-19T03:48:38.524Z,8.73
2023-08-19T03:51:05.114Z,9.15
2023-08-19T03:53:31.770Z,7.93
2023-08-19T03:55:58.397Z,7.93
2023-08-19T03:58:24.983Z,7.82
2023-08-19T04:00:51.725Z,9.13
2023-08-19T04:03:18.400Z,8.60
2023-08-19T04:05:45.042Z,8.45
2023-08-19T04:08:11.676Z,8.63
2023-08-19T04:10:38.503Z,9.07
2023-08-19T04:13:05.372Z,8.30
2023-08-19T04:15:33.250Z,8.68
2023-08-19T04:17:59.950Z,9.27
2023-08-19T04:20:26.662Z,8.57
2023-08-19T04:22:53.381Z,9.07
2023-08-19T04:25:20.099Z,8.73
2023-08-19T04:27:46.775Z,8.95
2023-08-19T04:30:14.288Z,8.77
2023-08-19T04:32:41.051Z,8.48
2023-08-19T04:35:08.283Z,8.27
2023-08-19T04:37:35.120Z,8.45
2023-08-19T04:40:02.067Z,9.25
2023-08-19T04:42:28.685Z,7.82
2023-08-19T04:44:55.355Z,8.40
2023-08-19T04:47:22.002Z,9.45
2023-08-19T04:49:48.683Z,8.98
2023-08-19T04:52:15.336Z,8.60
2023-08-19T04:54:41.981Z,8.63
2023-08-19T04:57:08.618Z,8.38
2023-08-19T04:59:35.282Z,8.75
2023-08-19T05:02:02.721Z,8.50
2023-08-19T05:04:29.491Z,8.25
2023-08-19T05:06:56.112Z,8.43
2023-08-19T05:09:22.954Z,8.27
2023-08-19T05:11:49.641Z,8.73
2023-08-19T05:14:16.351Z,9.10
2023-08-19T05:16:42.960Z,9.05
2023-08-19T05:19:22.056Z,8.20
2023-08-19T05:21:50.037Z,9.05
2023-08-19T05:24:19.778Z,7.60
2023-08-19T05:26:46.591Z,9.38
2023-08-19T05:29:14.382Z,9.45
2023-08-19T05:31:41.904Z,8.65
2023-08-19T05:34:09.503Z,9.00
2023-08-19T05:36:36.354Z,8.95
2023-08-19T05:39:03.586Z,8.88
2023-08-19T05:41:30.333Z,9.27
2023-08-19T05:43:56.920Z,9.63
2023-08-19T05:46:23.736Z,8.68
2023-08-19T05:48:50.521Z,10.38
2023-08-19T05:51:17.400Z,10.35
2023-08-19T05:53:43.988Z,9.10
2023-08-19T05:56:10.670Z,9.52
2023-08-19T05:58:37.320Z,9.93
2023-08-19T06:01:04.819Z,9.40
2023-08-19T06:03:31.672Z,9.48
2023-08-19T06:05:58.464Z,10.40
2023-08-19T06:08:25.112Z,9.85
2023-08-19T06:11:07.805Z,9.32
2023-08-19T06:13:35.409Z,9.20
2023-08-19T06:16:02.715Z,10.05
2023-08-19T06:18:29.965Z,8.35
2023-08-19T06:20:57.943Z,8.90
2023-08-19T06:23:24.876Z,9.13
2023-08-19T06:25:53.674Z,9.85
2023-08-19T06:28:22.734Z,9.43
2023-08-19T06:30:50.606Z,8.90
2023-08-19T06:33:18.080Z,8.43
2023-08-19T06:35:51.191Z,10.43
2023-08-19T06:38:22.274Z,8.60
2023-08-19T06:41:01.540Z,9.45
2023-08-19T06:43:28.644Z,8.65
2023-08-19T06:45:56.418Z,9.30
2023-08-19T06:48:26.556Z,8.25
2023-08-19T06:50:54.665Z,9.23
2023-08-19T06:53:25.324Z,8.32
2023-08-19T06:56:01.997Z,8.80
2023-08-19T07:01:04.579Z,7.20
2023-08-19T07:03:34.554Z,7.95
2023-08-19T07:06:03.369Z,8.80
2023-08-19T07:08:31.956Z,9.13
2023-08-19T07:11:00.642Z,9.50
2023-08-19T07:13:28.205Z,9.38
2023-08-19T07:16:01.949Z,8.88
2023-08-19T07:18:31.481Z,8.77
2023-08-19T07:21:00.394Z,8.65
2023-08-19T07:23:27.446Z,9.02
2023-08-19T07:25:54.464Z,8.48
2023-08-19T07:28:24.196Z,9.07
2023-08-19T07:30:52.173Z,9.00
2023-08-19T07:33:19.117Z,8.43
2023-08-19T07:35:46.510Z,7.97
2023-08-19T07:38:15.752Z,8.32
2023-08-19T07:40:42.639Z,7.93
2023-08-19T07:43:09.248Z,8.90
2023-08-19T07:45:36.495Z,8.07
2023-08-19T07:48:03.541Z,8.38
2023-08-19T07:50:30.647Z,7.32
2023-08-19T07:52:57.344Z,8.00
2023-08-19T07:55:23.969Z,7.10
2023-08-19T07:57:50.710Z,7.95
2023-08-19T08:00:17.454Z,7.43
2023-08-19T08:02:44.064Z,7.60
2023-08-19T08:05:10.971Z,6.70
2023-08-19T08:07:38.185Z,7.30
2023-08-19T08:10:05.296Z,6.65
2023-08-19T08:12:33.115Z,6.75
2023-08-19T08:15:00.297Z,7.05
2023-08-19T08:17:27.309Z,6.20
2023-08-19T08:19:57.215Z,6.40
2023-08-19T08:22:24.643Z,6.93
2023-08-19T08:24:51.327Z,6.50
2023-08-19T08:27:18.144Z,6.88
2023-08-19T08:29:44.840Z,6.70
2023-08-19T08:32:11.535Z,6.15
2023-08-19T08:34:38.322Z,6.65
2023-08-19T08:37:04.999Z,6.13
2023-08-19T08:39:31.753Z,6.43
2023-08-19T08:41:59.597Z,6.82
2023-08-19T08:44:27.659Z,5.93
2023-08-19T08:46:57.089Z,5.70
2023-08-19T08:49:25.967Z,6.13
2023-08-19T08:51:52.919Z,5.68
2023-08-19T08:54:22.747Z,5.55
2023-08-19T08:56:50.267Z,5.55
2023-08-19T08:59:17.862Z,5.60
2023-08-19T09:01:47.453Z,5.93
2023-08-19T09:04:16.666Z,4.88
2023-08-19T09:06:47.385Z,4.82
2023-08-19T09:09:14.501Z,4.75
2023-08-19T09:11:47.658Z,4.50
2023-08-19T09:14:29.506Z,5.07
2023-08-19T09:16:56.164Z,4.05
2023-08-19T09:19:22.887Z,4.13
2023-08-19T09:21:49.532Z,4.40
2023-08-19T09:24:17.564Z,4.82
2023-08-19T09:26:46.404Z,4.63
2023-08-19T09:29:13.299Z,4.10
2023-08-19T09:31:40.998Z,4.72
2023-08-19T09:34:08.024Z,5.13
2023-08-19T09:36:34.763Z,4.38
2023-08-19T09:39:01.430Z,4.93
2023-08-19T09:41:29.689Z,4.20
2023-08-19T09:43:58.236Z,4.10
2023-08-19T09:46:33.361Z,3.78
2023-08-19T09:49:00.487Z,3.85
2023-08-19T09:51:29.870Z,4.13
2023-08-19T09:53:57.450Z,3.92
2023-08-19T09:56:26.736Z,3.92
